Time;durP1;ratioP1;P1;durP2;ratioP2;P2;SDS_P1;SDS_P2;PMS_P1;PMS_P2;Temp;Humidity;BMP_temperature;BMP_pressure;BME280_temperature;BME280_humidity;BME280_pressure;Samples;Min_cycle;Max_cycle;Signal;HPM_P1;HPM_P2
2022/08/05 00:00:04;;;;;;;7.40;6.70;;;;;;;;;;105554;1296;25316;-28
2022/08/05 00:02:30;;;;;;;10.10;9.30;;;;;;;;;;105609;1303;25194;-24
2022/08/05 00:04:55;;;;;;;10.70;9.10;;;;;;;;;;105650;1289;25333;-28
2022/08/05 00:07:21;;;;;;;4.40;4.00;;;;;;;;;;105682;1289;25265;-28
2022/08/05 00:09:47;;;;;;;11.70;10.90;;;;;;;;;;105558;1299;25302;-25
2022/08/05 00:12:12;;;;;;;33.30;30.10;;;;;;;;;;105509;1296;25312;-25
2022/08/05 00:14:38;;;;;;;23.10;20.70;;;;;;;;;;105600;1296;25277;-28
2022/08/05 00:17:03;;;;;;;10.80;9.80;;;;;;;;;;105611;1303;25268;-24
2022/08/05 00:19:29;;;;;;;19.90;18.30;;;;;;;;;;105573;1296;25187;-28
2022/08/05 00:21:55;;;;;;;29.70;27.00;;;;;;;;;;105598;1296;25224;-27
2022/08/05 00:24:20;;;;;;;13.10;11.90;;;;;;;;;;105575;1296;25197;-30
2022/08/05 00:26:46;;;;;;;9.80;8.10;;;;;;;;;;105586;1296;26566;-28
2022/08/05 00:29:11;;;;;;;7.90;5.50;;;;;;;;;;105532;1303;25279;-30
2022/08/05 00:31:36;;;;;;;10.80;10.00;;;;;;;;;;105591;1296;25206;-30
2022/08/05 00:34:03;;;;;;;10.40;7.80;;;;;;;;;;105523;1296;25255;-25
2022/08/05 00:36:29;;;;;;;24.60;22.20;;;;;;;;;;105588;1296;25346;-26
2022/08/05 00:38:54;;;;;;;17.60;15.90;;;;;;;;;;104795;1303;1003832;-24
2022/08/05 00:41:23;;;;;;;7.90;7.20;;;;;;;;;;105569;1298;25206;-28
2022/08/05 00:43:48;;;;;;;9.90;9.00;;;;;;;;;;105579;1301;22523;-26
2022/08/05 00:46:14;;;;;;;23.70;21.40;;;;;;;;;;105530;1296;25244;-26
2022/08/05 00:48:39;;;;;;;10.20;9.30;;;;;;;;;;105558;1295;25280;-26
2022/08/05 00:51:05;;;;;;;34.10;30.90;;;;;;;;;;105595;1303;26527;-25
2022/08/05 00:53:31;;;;;;;40.70;35.90;;;;;;;;;;105593;1296;26474;-29
2022/08/05 00:55:56;;;;;;;22.40;20.60;;;;;;;;;;105428;1303;25111;-28
2022/08/05 00:58:22;;;;;;;37.10;33.70;;;;;;;;;;105576;1296;26463;-24
2022/08/05 01:00:47;;;;;;;34.90;31.50;;;;;;;;;;105640;1296;25203;-28
2022/08/05 01:03:13;;;;;;;18.60;17.10;;;;;;;;;;105472;1295;25276;-28
2022/08/05 01:05:38;;;;;;;19.60;17.70;;;;;;;;;;105582;1303;22525;-27
2022/08/05 01:08:04;;;;;;;20.40;17.50;;;;;;;;;;105435;1304;25285;-24
2022/08/05 01:10:31;;;;;;;31.40;28.60;;;;;;;;;;105541;1298;25178;-28
2022/08/05 01:12:57;;;;;;;12.80;11.80;;;;;;;;;;105555;1296;25197;-24
2022/08/05 01:15:26;;;;;;;14.60;13.30;;;;;;;;;;105528;1288;24218;-24
2022/08/05 01:18:02;;;;;;;8.10;7.40;;;;;;;;;;105642;1303;25258;-29
2022/08/05 01:20:28;;;;;;;16.20;14.30;;;;;;;;;;105555;1296;25237;-25
2022/08/05 01:22:57;;;;;;;8.20;7.40;;;;;;;;;;105571;1296;25196;-24
2022/08/05 01:25:28;;;;;;;7.10;6.40;;;;;;;;;;105563;1303;25206;-25
2022/08/05 01:27:57;;;;;;;6.10;4.60;;;;;;;;;;105610;1298;25277;-25
2022/08/05 01:30:23;;;;;;;7.70;7.10;;;;;;;;;;105666;1303;25234;-28
2022/08/05 01:32:51;;;;;;;9.90;9.00;;;;;;;;;;105626;1296;25206;-30
2022/08/05 01:35:16;;;;;;;10.90;9.70;;;;;;;;;;105647;1296;22627;-25
2022/08/05 01:37:43;;;;;;;12.80;11.70;;;;;;;;;;105601;1298;25234;-27
2022/08/05 01:40:09;;;;;;;19.30;17.40;;;;;;;;;;105541;1298;25196;-28
2022/08/05 01:42:35;;;;;;;14.70;4.40;;;;;;;;;;105685;1296;22500;-27
2022/08/05 01:45:00;;;;;;;14.30;11.80;;;;;;;;;;105388;1299;25226;-24
2022/08/05 01:47:26;;;;;;;13.40;11.80;;;;;;;;;;105551;1296;25197;-24
2022/08/05 01:49:52;;;;;;;5.10;4.70;;;;;;;;;;105630;1303;25372;-29
2022/08/05 01:52:17;;;;;;;21.60;19.80;;;;;;;;;;105494;1296;25289;-28
2022/08/05 01:54:45;;;;;;;5.70;4.70;;;;;;;;;;105498;1296;25263;-24
2022/08/05 01:57:11;;;;;;;8.40;7.60;;;;;;;;;;105343;1298;25276;-24
2022/08/05 01:59:36;;;;;;;6.10;5.40;;;;;;;;;;105616;1303;25238;-24
2022/08/05 02:02:02;;;;;;;7.60;6.90;;;;;;;;;;105704;1298;25229;-24
2022/08/05 02:04:28;;;;;;;12.30;10.70;;;;;;;;;;105502;1303;24228;-24
2022/08/05 02:06:54;;;;;;;9.40;8.30;;;;;;;;;;105557;1298;25324;-31
2022/08/05 02:09:19;;;;;;;11.70;10.70;;;;;;;;;;105239;1301;25184;-25
2022/08/05 02:11:47;;;;;;;19.20;17.50;;;;;;;;;;105366;1304;26450;-27
2022/08/05 02:14:14;;;;;;;11.90;10.80;;;;;;;;;;105607;1298;25194;-24
2022/08/05 02:16:43;;;;;;;41.60;37.50;;;;;;;;;;105517;1299;25417;-28
2022/08/05 02:19:12;;;;;;;27.60;23.60;;;;;;;;;;105617;1299;25206;-30
2022/08/05 02:21:38;;;;;;;15.50;14.20;;;;;;;;;;105564;1298;25428;-31
2022/08/05 02:24:05;;;;;;;7.10;6.40;;;;;;;;;;105595;1298;25282;-27
2022/08/05 02:26:34;;;;;;;19.90;16.20;;;;;;;;;;105549;1303;25235;-28
2022/08/05 02:29:00;;;;;;;9.70;7.70;;;;;;;;;;105621;1296;25196;-25
2022/08/05 02:31:26;;;;;;;11.40;10.40;;;;;;;;;;105498;1296;22516;-28
2022/08/05 02:33:56;;;;;;;5.80;4.50;;;;;;;;;;105562;1296;25642;-28
2022/08/05 02:36:21;;;;;;;4.10;3.70;;;;;;;;;;105407;1292;26466;-28
2022/08/05 02:38:47;;;;;;;5.80;3.30;;;;;;;;;;105617;1296;25188;-24
2022/08/05 02:41:13;;;;;;;4.90;3.70;;;;;;;;;;105543;1296;25244;-28
2022/08/05 02:43:38;;;;;;;4.70;4.30;;;;;;;;;;105637;1303;25239;-28
2022/08/05 02:46:04;;;;;;;6.10;4.10;;;;;;;;;;104844;1296;1003078;-24
2022/08/05 02:48:30;;;;;;;11.50;6.70;;;;;;;;;;105560;1298;25292;-28
2022/08/05 02:50:57;;;;;;;7.90;5.80;;;;;;;;;;105532;1296;22535;-28
2022/08/05 02:53:23;;;;;;;8.80;7.00;;;;;;;;;;105557;1298;25184;-28
2022/08/05 02:55:49;;;;;;;5.90;5.40;;;;;;;;;;105501;1296;25196;-25
2022/08/05 02:58:15;;;;;;;6.60;5.30;;;;;;;;;;105628;1296;25438;-31
2022/08/05 03:00:40;;;;;;;5.00;3.70;;;;;;;;;;105497;1298;25278;-28
2022/08/05 03:03:06;;;;;;;7.50;6.00;;;;;;;;;;105611;1289;25305;-24
2022/08/05 03:05:32;;;;;;;7.40;4.80;;;;;;;;;;105592;1296;25225;-28
2022/08/05 03:07:57;;;;;;;5.80;5.00;;;;;;;;;;105576;1303;22536;-28
2022/08/05 03:10:24;;;;;;;5.70;4.20;;;;;;;;;;105539;1296;25197;-24
2022/08/05 03:12:50;;;;;;;5.60;4.30;;;;;;;;;;105649;1296;25349;-27
2022/08/05 03:15:15;;;;;;;9.50;6.50;;;;;;;;;;105588;1299;26539;-24
2022/08/05 03:17:40;;;;;;;19.10;4.30;;;;;;;;;;105577;1296;25398;-28
2022/08/05 03:20:06;;;;;;;6.30;3.40;;;;;;;;;;105605;1296;25357;-24
2022/08/05 03:22:32;;;;;;;4.20;3.30;;;;;;;;;;105535;1298;25238;-28
2022/08/05 03:24:57;;;;;;;4.70;3.00;;;;;;;;;;105525;1299;25278;-25
2022/08/05 03:27:23;;;;;;;4.80;2.90;;;;;;;;;;105513;1303;26521;-25
2022/08/05 03:29:48;;;;;;;4.80;3.90;;;;;;;;;;105561;1296;25178;-24
2022/08/05 03:32:14;;;;;;;13.60;3.10;;;;;;;;;;105585;1289;26531;-28
2022/08/05 03:34:40;;;;;;;4.10;3.20;;;;;;;;;;105619;1298;25310;-25
2022/08/05 03:37:06;;;;;;;4.60;3.80;;;;;;;;;;105603;1303;25193;-23
2022/08/05 03:39:31;;;;;;;8.30;3.30;;;;;;;;;;105563;1298;25226;-24
2022/08/05 03:41:57;;;;;;;6.10;3.70;;;;;;;;;;105517;1296;25203;-23
2022/08/05 03:44:23;;;;;;;4.20;3.50;;;;;;;;;;105580;1296;23693;-24
2022/08/05 03:46:48;;;;;;;7.10;3.20;;;;;;;;;;105539;1298;24355;-28
2022/08/05 03:49:14;;;;;;;3.20;1.90;;;;;;;;;;105524;1296;25219;-27
2022/08/05 03:51:43;;;;;;;4.60;2.70;;;;;;;;;;105549;1296;25181;-24
2022/08/05 03:54:11;;;;;;;6.00;2.80;;;;;;;;;;105604;1297;25209;-28
2022/08/05 03:56:38;;;;;;;4.60;3.30;;;;;;;;;;105157;1304;25280;-28
2022/08/05 03:59:06;;;;;;;3.30;2.10;;;;;;;;;;105581;1299;25235;-25
2022/08/05 04:01:32;;;;;;;3.80;3.30;;;;;;;;;;105638;1299;25222;-29
2022/08/05 04:03:58;;;;;;;4.10;2.60;;;;;;;;;;105592;1298;25343;-29
2022/08/05 04:06:24;;;;;;;4.80;2.90;;;;;;;;;;105568;1303;22514;-23
2022/08/05 04:08:50;;;;;;;4.60;3.90;;;;;;;;;;105553;1296;25320;-25
2022/08/05 04:11:16;;;;;;;3.00;2.80;;;;;;;;;;105347;1298;25194;-28
2022/08/05 04:13:41;;;;;;;4.20;3.40;;;;;;;;;;105549;1296;25351;-25
2022/08/05 04:16:07;;;;;;;4.20;3.30;;;;;;;;;;105583;1299;25234;-24
2022/08/05 04:18:33;;;;;;;6.00;3.40;;;;;;;;;;105578;1303;25196;-28
2022/08/05 04:20:58;;;;;;;4.30;2.40;;;;;;;;;;105636;1298;25197;-25
2022/08/05 04:23:24;;;;;;;3.90;3.10;;;;;;;;;;105577;1298;25442;-26
2022/08/05 04:25:50;;;;;;;2.90;2.70;;;;;;;;;;105617;1303;25356;-28
2022/08/05 04:28:16;;;;;;;3.30;2.30;;;;;;;;;;105610;1299;24354;-28
2022/08/05 04:30:41;;;;;;;5.50;3.60;;;;;;;;;;105537;1298;25187;-30
2022/08/05 04:33:07;;;;;;;4.10;3.10;;;;;;;;;;105518;1296;25391;-26
2022/08/05 04:35:32;;;;;;;7.30;2.90;;;;;;;;;;105564;1296;25237;-28
2022/08/05 04:37:58;;;;;;;4.20;3.50;;;;;;;;;;105437;1282;25235;-25
2022/08/05 04:40:23;;;;;;;4.80;3.30;;;;;;;;;;105620;1299;25247;-27
2022/08/05 04:42:49;;;;;;;5.60;2.90;;;;;;;;;;105311;1303;26500;-30
2022/08/05 04:45:14;;;;;;;3.90;3.30;;;;;;;;;;105527;1296;27541;-29
2022/08/05 04:47:39;;;;;;;4.20;3.70;;;;;;;;;;105526;1296;26547;-28
2022/08/05 04:50:05;;;;;;;5.60;2.90;;;;;;;;;;105565;1296;25259;-24
2022/08/05 04:52:31;;;;;;;5.00;3.70;;;;;;;;;;105672;1299;25302;-24
2022/08/05 04:54:56;;;;;;;3.10;2.70;;;;;;;;;;105633;1303;25290;-24
2022/08/05 04:57:22;;;;;;;4.10;2.90;;;;;;;;;;105568;1296;25419;-29
2022/08/05 04:59:47;;;;;;;3.80;2.60;;;;;;;;;;105600;1296;25200;-25
2022/08/05 05:02:13;;;;;;;9.30;4.10;;;;;;;;;;105542;1296;25184;-29
2022/08/05 05:04:38;;;;;;;5.80;2.90;;;;;;;;;;105553;1298;25234;-29
2022/08/05 05:07:04;;;;;;;3.30;3.00;;;;;;;;;;105526;1299;25343;-25
2022/08/05 05:09:29;;;;;;;5.00;4.30;;;;;;;;;;105151;1301;25343;-29
2022/08/05 05:11:55;;;;;;;4.60;2.50;;;;;;;;;;105596;1296;25197;-28
2022/08/05 05:14:20;;;;;;;3.80;3.30;;;;;;;;;;105534;1296;25216;-29
2022/08/05 05:16:47;;;;;;;12.20;3.10;;;;;;;;;;105709;1296;25196;-29
2022/08/05 05:19:12;;;;;;;4.20;2.80;;;;;;;;;;105541;1303;25347;-29
2022/08/05 05:21:38;;;;;;;4.70;2.60;;;;;;;;;;105368;1299;25199;-29
2022/08/05 05:24:03;;;;;;;3.70;3.30;;;;;;;;;;105589;1296;25219;-30
2022/08/05 05:26:29;;;;;;;4.90;3.30;;;;;;;;;;105533;1296;25276;-29
2022/08/05 05:28:54;;;;;;;2.40;2.10;;;;;;;;;;105597;1296;25255;-29
2022/08/05 05:31:20;;;;;;;4.90;2.80;;;;;;;;;;105638;1296;25277;-25
2022/08/05 05:33:45;;;;;;;3.40;2.40;;;;;;;;;;105544;1303;25262;-25
2022/08/05 05:36:12;;;;;;;6.10;3.80;;;;;;;;;;105601;1296;25200;-26
2022/08/05 05:38:37;;;;;;;4.90;2.60;;;;;;;;;;105578;1295;25191;-25
2022/08/05 05:41:03;;;;;;;3.20;2.40;;;;;;;;;;105540;1296;26518;-30
2022/08/05 05:43:28;;;;;;;5.10;3.60;;;;;;;;;;105583;1296;25229;-25
2022/08/05 05:45:54;;;;;;;4.40;2.90;;;;;;;;;;105445;1303;25219;-29
2022/08/05 05:48:19;;;;;;;3.10;2.80;;;;;;;;;;105522;1303;25275;-29
2022/08/05 05:50:45;;;;;;;6.50;3.90;;;;;;;;;;104961;1296;729671;-26
2022/08/05 05:53:12;;;;;;;3.80;2.60;;;;;;;;;;105572;1298;25350;-25
2022/08/05 05:55:37;;;;;;;9.90;3.70;;;;;;;;;;105635;1295;25263;-25
2022/08/05 05:58:03;;;;;;;3.30;2.40;;;;;;;;;;105548;1296;25196;-29
2022/08/05 06:00:28;;;;;;;5.90;2.60;;;;;;;;;;105627;1296;25191;-28
2022/08/05 06:02:53;;;;;;;7.30;3.30;;;;;;;;;;105588;1299;24208;-30
2022/08/05 06:05:20;;;;;;;3.50;2.80;;;;;;;;;;105588;1303;26581;-28
2022/08/05 06:07:45;;;;;;;3.60;2.70;;;;;;;;;;105487;1298;25225;-25
2022/08/05 06:10:11;;;;;;;4.80;2.80;;;;;;;;;;105528;1299;25197;-25
2022/08/05 06:12:37;;;;;;;4.00;3.10;;;;;;;;;;105388;1303;22464;-31
2022/08/05 06:15:03;;;;;;;4.70;3.70;;;;;;;;;;105601;1299;25238;-31
2022/08/05 06:17:28;;;;;;;5.10;3.20;;;;;;;;;;105461;1299;25196;-24
2022/08/05 06:19:53;;;;;;;3.70;2.80;;;;;;;;;;105548;1296;25331;-31
2022/08/05 06:22:23;;;;;;;2.90;2.40;;;;;;;;;;105565;1296;25356;-26
2022/08/05 06:24:49;;;;;;;8.30;3.60;;;;;;;;;;105617;1296;25237;-26
2022/08/05 06:27:14;;;;;;;3.10;2.50;;;;;;;;;;105504;1296;25226;-27
2022/08/05 06:29:40;;;;;;;6.10;2.70;;;;;;;;;;105580;1296;25200;-24
2022/08/05 06:32:05;;;;;;;7.30;3.30;;;;;;;;;;105496;1296;25196;-29
2022/08/05 06:34:31;;;;;;;5.70;3.30;;;;;;;;;;105422;1299;25302;-29
2022/08/05 06:36:56;;;;;;;4.60;3.40;;;;;;;;;;105599;1296;25225;-25
2022/08/05 06:39:22;;;;;;;2.70;2.30;;;;;;;;;;105684;1299;25288;-25
2022/08/05 06:41:48;;;;;;;3.80;2.40;;;;;;;;;;105583;1296;25257;-25
2022/08/05 06:44:14;;;;;;;3.00;2.70;;;;;;;;;;105587;1298;25315;-25
2022/08/05 06:46:39;;;;;;;3.10;2.70;;;;;;;;;;105622;1289;25237;-27
2022/08/05 06:49:05;;;;;;;3.40;2.30;;;;;;;;;;105605;1296;25238;-29
2022/08/05 06:51:30;;;;;;;6.50;3.40;;;;;;;;;;105495;1298;25244;-25
2022/08/05 06:53:59;;;;;;;4.30;3.10;;;;;;;;;;105576;1295;26463;-26
2022/08/05 06:56:26;;;;;;;3.20;2.90;;;;;;;;;;105649;1298;25280;-29
2022/08/05 06:58:51;;;;;;;3.70;2.10;;;;;;;;;;105581;1299;25229;-29
2022/08/05 07:01:17;;;;;;;4.90;3.20;;;;;;;;;;105547;1296;25286;-26
2022/08/05 07:03:42;;;;;;;24.80;3.70;;;;;;;;;;105606;1303;25206;-25
2022/08/05 07:06:08;;;;;;;6.10;2.80;;;;;;;;;;105564;1299;25193;-31
2022/08/05 07:08:33;;;;;;;4.20;2.70;;;;;;;;;;105518;1302;22706;-29
2022/08/05 07:10:59;;;;;;;6.20;2.70;;;;;;;;;;105494;1296;25305;-25
2022/08/05 07:18:23;;;;;;;4.20;3.30;;;;;;;;;;105428;1299;25197;-23
2022/08/05 07:20:48;;;;;;;6.40;2.80;;;;;;;;;;105668;1299;25197;-27
2022/08/05 07:23:14;;;;;;;9.10;3.70;;;;;;;;;;105610;1296;25296;-24
2022/08/05 07:25:39;;;;;;;5.80;3.00;;;;;;;;;;105539;1303;25234;-31
2022/08/05 07:28:05;;;;;;;7.10;3.00;;;;;;;;;;105567;1296;25247;-28
2022/08/05 07:30:31;;;;;;;3.90;3.50;;;;;;;;;;105572;1296;25193;-25
2022/08/05 07:32:57;;;;;;;5.90;3.10;;;;;;;;;;105542;1296;25284;-24
2022/08/05 07:35:22;;;;;;;4.20;3.50;;;;;;;;;;105597;1296;25196;-25
2022/08/05 07:37:48;;;;;;;4.00;3.20;;;;;;;;;;105644;1296;25243;-28
2022/08/05 07:40:13;;;;;;;2.90;2.70;;;;;;;;;;105607;1296;25241;-25
2022/08/05 07:42:39;;;;;;;4.50;2.90;;;;;;;;;;105488;1296;25303;-29
2022/08/05 07:45:05;;;;;;;3.10;2.80;;;;;;;;;;105538;1296;25288;-25
2022/08/05 07:47:30;;;;;;;5.40;3.10;;;;;;;;;;105615;1298;25219;-25
2022/08/05 07:49:56;;;;;;;7.80;3.20;;;;;;;;;;105610;1296;22766;-29
2022/08/05 07:52:21;;;;;;;15.60;3.30;;;;;;;;;;105529;1299;25267;-25
2022/08/05 07:54:47;;;;;;;6.80;3.50;;;;;;;;;;105623;1286;26630;-30
2022/08/05 07:57:13;;;;;;;3.40;3.00;;;;;;;;;;104792;1303;1003940;-28
2022/08/05 07:59:38;;;;;;;5.80;2.90;;;;;;;;;;105600;1299;25301;-25
2022/08/05 08:02:06;;;;;;;5.00;3.50;;;;;;;;;;105560;1303;25209;-30
2022/08/05 08:04:31;;;;;;;2.60;2.50;;;;;;;;;;105401;1303;25317;-26
2022/08/05 08:06:59;;;;;;;3.50;3.20;;;;;;;;;;105500;1296;25301;-26
2022/08/05 08:09:25;;;;;;;3.00;2.70;;;;;;;;;;105692;1283;25232;-30
2022/08/05 08:11:51;;;;;;;3.30;2.20;;;;;;;;;;105588;1296;25319;-26
2022/08/05 08:14:16;;;;;;;4.00;3.00;;;;;;;;;;105496;1292;25234;-26
2022/08/05 08:16:41;;;;;;;5.00;3.30;;;;;;;;;;105589;1296;25340;-26
2022/08/05 08:19:07;;;;;;;4.30;2.70;;;;;;;;;;105580;1296;25484;-26
2022/08/05 08:21:33;;;;;;;3.20;2.90;;;;;;;;;;105647;1296;25298;-26
2022/08/05 08:23:58;;;;;;;3.10;2.60;;;;;;;;;;105599;1296;25235;-28
2022/08/05 08:26:24;;;;;;;3.20;2.80;;;;;;;;;;105514;1296;25222;-25
2022/08/05 08:28:49;;;;;;;3.40;3.10;;;;;;;;;;105562;1296;25349;-24
2022/08/05 08:31:15;;;;;;;3.70;2.70;;;;;;;;;;105553;1302;25419;-24
2022/08/05 08:33:40;;;;;;;3.50;2.90;;;;;;;;;;105404;1299;25301;-24
2022/08/05 08:36:06;;;;;;;2.70;2.20;;;;;;;;;;105581;1296;26466;-28
2022/08/05 08:38:32;;;;;;;3.70;2.90;;;;;;;;;;105599;1298;25233;-28
2022/08/05 08:40:57;;;;;;;2.90;2.50;;;;;;;;;;105379;1286;25356;-25
2022/08/05 08:43:22;;;;;;;3.10;2.80;;;;;;;;;;105536;1303;25279;-24
2022/08/05 08:45:48;;;;;;;4.80;3.20;;;;;;;;;;104852;1296;1003337;-28
2022/08/05 08:48:14;;;;;;;3.90;3.10;;;;;;;;;;105638;1303;25253;-29
2022/08/05 08:50:40;;;;;;;3.70;2.70;;;;;;;;;;105625;1296;25323;-24
2022/08/05 08:53:07;;;;;;;3.80;2.90;;;;;;;;;;105638;1296;25269;-24
2022/08/05 08:55:32;;;;;;;2.50;2.20;;;;;;;;;;105584;1298;25236;-28
2022/08/05 08:57:59;;;;;;;3.10;2.60;;;;;;;;;;105556;1296;25204;-24
2022/08/05 09:00:24;;;;;;;2.90;2.70;;;;;;;;;;105594;1303;25232;-24
2022/08/05 09:02:51;;;;;;;3.40;3.10;;;;;;;;;;105409;1303;25304;-26
2022/08/05 09:05:16;;;;;;;2.90;2.70;;;;;;;;;;105584;1296;25372;-24
2022/08/05 09:07:42;;;;;;;2.80;2.30;;;;;;;;;;105545;1288;26474;-28
2022/08/05 09:10:08;;;;;;;3.10;2.20;;;;;;;;;;105564;1296;25257;-29
2022/08/05 09:12:33;;;;;;;3.50;3.20;;;;;;;;;;105400;1289;26463;-25
2022/08/05 09:15:00;;;;;;;3.10;2.80;;;;;;;;;;105557;1299;25341;-24
2022/08/05 09:17:26;;;;;;;5.50;3.10;;;;;;;;;;105543;1298;25260;-28
2022/08/05 09:19:51;;;;;;;5.60;3.50;;;;;;;;;;104851;1296;1003354;-29
2022/08/05 09:22:17;;;;;;;3.70;2.80;;;;;;;;;;105536;1299;25273;-29
2022/08/05 09:24:43;;;;;;;2.80;2.60;;;;;;;;;;105541;1296;25328;-29
2022/08/05 09:27:09;;;;;;;3.90;2.40;;;;;;;;;;105683;1299;26505;-29
2022/08/05 09:29:36;;;;;;;3.20;2.90;;;;;;;;;;105498;1303;25197;-25
2022/08/05 09:32:03;;;;;;;3.30;2.70;;;;;;;;;;105459;1298;26462;-26
2022/08/05 09:34:44;;;;;;;4.70;2.20;;;;;;;;;;105563;1296;25266;-29
2022/08/05 09:37:15;;;;;;;1.90;1.80;;;;;;;;;;105503;1296;25236;-24
2022/08/05 09:39:41;;;;;;;;;;;;;;;;;;105454;1304;25212;-25
2022/08/05 09:42:07;;;;;;;1.70;1.50;;;;;;;;;;105425;1303;26468;-26
2022/08/05 09:44:32;;;;;;;1.30;1.20;;;;;;;;;;105648;1303;25225;-28
2022/08/05 09:47:01;;;;;;;1.40;1.30;;;;;;;;;;105548;1296;25280;-28
2022/08/05 09:49:27;;;;;;;1.80;1.30;;;;;;;;;;105554;1296;25204;-26
2022/08/05 09:51:52;;;;;;;2.50;1.50;;;;;;;;;;105549;1296;25218;-24
2022/08/05 09:54:18;;;;;;;3.10;2.00;;;;;;;;;;105499;1289;25295;-25
2022/08/05 09:56:45;;;;;;;1.80;1.20;;;;;;;;;;105498;1299;25245;-25
2022/08/05 09:59:11;;;;;;;2.90;1.70;;;;;;;;;;105536;1296;25299;-29
2022/08/05 10:01:40;;;;;;;10.90;1.50;;;;;;;;;;105614;1296;25244;-29
2022/08/05 10:04:09;;;;;;;1.90;1.70;;;;;;;;;;105559;1298;25249;-29
2022/08/05 10:06:35;;;;;;;4.10;1.50;;;;;;;;;;105625;1299;25222;-25
2022/08/05 10:09:04;;;;;;;2.00;1.90;;;;;;;;;;105588;1303;22509;-25
2022/08/05 10:11:31;;;;;;;5.20;1.60;;;;;;;;;;105570;1299;25347;-25
2022/08/05 10:13:56;;;;;;;2.80;2.20;;;;;;;;;;105592;1299;25317;-25
2022/08/05 10:16:25;;;;;;;1.70;1.60;;;;;;;;;;105558;1297;25245;-25
2022/08/05 10:18:51;;;;;;;1.60;1.30;;;;;;;;;;105410;1299;25200;-28
2022/08/05 10:21:16;;;;;;;1.10;0.90;;;;;;;;;;105543;1298;25273;-24
2022/08/05 10:23:42;;;;;;;1.30;1.20;;;;;;;;;;105617;1303;25273;-29
2022/08/05 10:26:08;;;;;;;3.60;1.60;;;;;;;;;;105579;1296;25266;-24
2022/08/05 10:28:34;;;;;;;2.10;1.60;;;;;;;;;;105618;1299;25359;-29
2022/08/05 10:30:59;;;;;;;3.60;1.40;;;;;;;;;;105585;1299;25362;-28
2022/08/05 10:33:26;;;;;;;1.80;1.20;;;;;;;;;;105543;1296;26485;-24
2022/08/05 10:35:52;;;;;;;1.40;1.30;;;;;;;;;;105555;1299;25303;-25
2022/08/05 10:38:18;;;;;;;1.70;1.30;;;;;;;;;;105570;1299;25267;-25
2022/08/05 10:40:47;;;;;;;1.60;1.40;;;;;;;;;;105564;1298;25283;-29
2022/08/05 10:43:16;;;;;;;1.30;1.20;;;;;;;;;;105628;1296;26465;-23
2022/08/05 10:45:41;;;;;;;2.00;1.40;;;;;;;;;;105611;1299;26452;-29
2022/08/05 10:48:10;;;;;;;1.90;1.10;;;;;;;;;;105498;1299;25196;-29
2022/08/05 10:50:55;;;;;;;3.60;1.90;;;;;;;;;;105572;1303;25251;-29
2022/08/05 10:53:31;;;;;;;2.70;1.70;;;;;;;;;;105604;1303;25333;-29
2022/08/05 10:56:00;;;;;;;1.90;1.40;;;;;;;;;;105584;1292;25203;-29
2022/08/05 10:58:25;;;;;;;1.80;1.30;;;;;;;;;;105555;1300;25346;-24
2022/08/05 11:00:51;;;;;;;3.80;1.80;;;;;;;;;;105537;1299;25343;-28
2022/08/05 11:03:17;;;;;;;1.30;1.20;;;;;;;;;;105533;1303;25277;-28
2022/08/05 11:05:42;;;;;;;1.30;1.10;;;;;;;;;;105619;1299;25203;-28
2022/08/05 11:08:09;;;;;;;1.60;1.40;;;;;;;;;;105519;1296;25235;-24
2022/08/05 11:10:36;;;;;;;1.40;1.20;;;;;;;;;;105521;1296;22526;-24
2022/08/05 11:13:01;;;;;;;5.30;2.00;;;;;;;;;;105578;1299;25226;-28
2022/08/05 11:15:29;;;;;;;2.00;1.70;;;;;;;;;;105596;1299;25194;-28
2022/08/05 11:17:58;;;;;;;1.70;1.50;;;;;;;;;;105645;1299;25238;-28
2022/08/05 11:20:37;;;;;;;2.00;1.70;;;;;;;;;;105611;1298;25229;-24
2022/08/05 11:23:14;;;;;;;2.60;2.10;;;;;;;;;;105579;1302;25202;-29
2022/08/05 11:25:43;;;;;;;2.30;1.60;;;;;;;;;;105515;1302;25303;-29
2022/08/05 11:28:08;;;;;;;2.70;1.80;;;;;;;;;;105558;1296;25258;-28
2022/08/05 11:30:37;;;;;;;2.10;1.80;;;;;;;;;;105524;1299;25334;-24
2022/08/05 11:33:06;;;;;;;3.30;1.90;;;;;;;;;;105662;1299;25349;-28
2022/08/05 11:35:35;;;;;;;2.00;1.30;;;;;;;;;;105586;1280;25281;-25
2022/08/05 11:38:01;;;;;;;3.30;2.70;;;;;;;;;;105619;1299;25298;-29
2022/08/05 11:40:29;;;;;;;8.20;1.90;;;;;;;;;;105583;1299;26477;-25
2022/08/05 11:42:55;;;;;;;1.40;1.30;;;;;;;;;;105566;1303;25241;-24
2022/08/05 11:45:20;;;;;;;1.80;1.40;;;;;;;;;;105602;1289;25222;-26
2022/08/05 11:47:46;;;;;;;2.00;1.80;;;;;;;;;;105565;1296;25238;-28
2022/08/05 11:50:12;;;;;;;2.00;1.80;;;;;;;;;;105596;1299;25365;-28
2022/08/05 11:52:37;;;;;;;1.80;1.60;;;;;;;;;;105577;1303;25341;-28
2022/08/05 11:55:03;;;;;;;3.00;1.80;;;;;;;;;;105625;1296;25194;-28
2022/08/05 11:57:29;;;;;;;2.10;1.90;;;;;;;;;;105617;1303;25244;-28
2022/08/05 11:59:54;;;;;;;1.50;1.40;;;;;;;;;;105572;1296;24858;-29
2022/08/05 12:02:23;;;;;;;2.90;1.90;;;;;;;;;;105395;1299;25330;-25
2022/08/05 12:04:49;;;;;;;2.80;2.00;;;;;;;;;;105529;1280;25442;-23
2022/08/05 12:07:15;;;;;;;2.30;1.80;;;;;;;;;;105581;1303;25197;-23
2022/08/05 12:09:41;;;;;;;2.70;2.10;;;;;;;;;;105409;1299;25477;-27
2022/08/05 12:12:07;;;;;;;2.30;2.10;;;;;;;;;;105564;1298;25353;-23
2022/08/05 12:14:35;;;;;;;3.10;2.70;;;;;;;;;;105419;1292;26496;-27
2022/08/05 12:17:05;;;;;;;2.00;1.80;;;;;;;;;;105602;1299;25285;-25
2022/08/05 12:19:33;;;;;;;6.50;5.60;;;;;;;;;;105602;1299;26463;-29
2022/08/05 12:21:59;;;;;;;2.70;2.10;;;;;;;;;;105635;1290;25352;-29
2022/08/05 12:24:24;;;;;;;2.00;1.80;;;;;;;;;;105553;1296;25523;-30
2022/08/05 12:26:51;;;;;;;1.80;1.50;;;;;;;;;;105574;1299;25218;-25
2022/08/05 12:29:18;;;;;;;2.10;2.00;;;;;;;;;;105594;1296;25386;-25
2022/08/05 12:31:44;;;;;;;5.20;2.50;;;;;;;;;;105589;1296;25238;-25
2022/08/05 12:34:10;;;;;;;2.10;1.90;;;;;;;;;;105553;1298;26567;-25
2022/08/05 12:36:36;;;;;;;3.10;1.50;;;;;;;;;;105586;1289;22703;-28
2022/08/05 12:39:02;;;;;;;2.40;2.20;;;;;;;;;;105711;1296;25223;-29
2022/08/05 12:41:29;;;;;;;2.10;1.90;;;;;;;;;;105554;1296;25344;-29
2022/08/05 12:43:59;;;;;;;3.10;2.10;;;;;;;;;;105555;1299;25210;-28
2022/08/05 12:46:26;;;;;;;3.80;2.50;;;;;;;;;;105508;1299;25482;-25
2022/08/05 12:48:54;;;;;;;2.80;2.60;;;;;;;;;;105580;1296;25303;-24
2022/08/05 12:51:20;;;;;;;2.50;2.20;;;;;;;;;;105610;1302;25340;-24
2022/08/05 12:53:46;;;;;;;2.10;1.90;;;;;;;;;;105579;1299;26447;-24
2022/08/05 12:56:14;;;;;;;2.30;1.80;;;;;;;;;;105541;1296;25279;-24
2022/08/05 12:58:40;;;;;;;5.30;2.50;;;;;;;;;;105631;1302;25197;-28
2022/08/05 13:01:05;;;;;;;2.10;1.70;;;;;;;;;;105625;1302;25231;-25
2022/08/05 13:03:33;;;;;;;2.10;2.00;;;;;;;;;;105410;1299;25270;-27
2022/08/05 13:06:00;;;;;;;2.80;2.30;;;;;;;;;;105588;1298;25234;-25
2022/08/05 13:08:26;;;;;;;4.80;2.20;;;;;;;;;;105412;1299;25254;-25
2022/08/05 13:10:57;;;;;;;1.80;1.70;;;;;;;;;;105536;1302;22513;-23
2022/08/05 13:13:25;;;;;;;1.60;1.50;;;;;;;;;;105517;1296;25359;-29
2022/08/05 13:15:51;;;;;;;2.90;1.70;;;;;;;;;;105526;1296;25197;-28
2022/08/05 13:18:17;;;;;;;1.70;1.60;;;;;;;;;;105520;1296;25346;-28
2022/08/05 13:20:43;;;;;;;1.40;1.30;;;;;;;;;;105544;1299;25197;-28
2022/08/05 13:23:09;;;;;;;1.40;1.30;;;;;;;;;;105581;1296;25234;-28
2022/08/05 13:25:34;;;;;;;1.90;1.80;;;;;;;;;;105583;1296;26571;-25
2022/08/05 13:28:02;;;;;;;14.50;2.80;;;;;;;;;;105558;1302;25302;-24
2022/08/05 13:30:27;;;;;;;3.90;1.80;;;;;;;;;;105582;1302;25579;-28
2022/08/05 13:32:53;;;;;;;4.90;1.20;;;;;;;;;;105603;1295;25518;-24
2022/08/05 13:35:19;;;;;;;1.10;1.10;;;;;;;;;;105609;1302;25603;-24
2022/08/05 13:37:44;;;;;;;6.80;2.00;;;;;;;;;;105652;1302;25465;-28
2022/08/05 13:40:10;;;;;;;1.70;1.30;;;;;;;;;;105539;1296;25197;-28
2022/08/05 13:42:36;;;;;;;1.70;1.20;;;;;;;;;;105607;1302;22502;-31
2022/08/05 13:45:02;;;;;;;2.20;1.90;;;;;;;;;;105521;1298;25242;-25
2022/08/05 13:47:28;;;;;;;6.50;1.50;;;;;;;;;;105535;1296;25197;-29
2022/08/05 13:49:53;;;;;;;1.80;1.70;;;;;;;;;;105517;1296;25190;-28
2022/08/05 13:52:22;;;;;;;7.10;1.40;;;;;;;;;;105257;1302;408351;-29
2022/08/05 13:54:47;;;;;;;2.90;1.50;;;;;;;;;;105586;1299;25197;-25
2022/08/05 13:57:13;;;;;;;1.30;1.10;;;;;;;;;;105536;1296;25242;-25
2022/08/05 13:59:39;;;;;;;6.00;1.20;;;;;;;;;;105565;1296;25513;-24
2022/08/05 14:02:05;;;;;;;3.60;1.30;;;;;;;;;;105540;1302;25194;-24
2022/08/05 14:07:01;;;;;;;5.00;2.80;;;;;;;;;;105578;1298;25458;-24
2022/08/05 14:09:26;;;;;;;48.30;34.10;;;;;;;;;;105516;1296;26509;-28
2022/08/05 14:11:51;;;;;;;1.60;1.30;;;;;;;;;;105588;1296;25238;-29
2022/08/05 14:14:17;;;;;;;4.40;2.20;;;;;;;;;;105539;1296;25337;-29
2022/08/05 14:16:42;;;;;;;9.10;1.90;;;;;;;;;;105520;1303;25234;-25
2022/08/05 14:19:08;;;;;;;6.80;1.40;;;;;;;;;;105528;1296;25454;-29
2022/08/05 14:21:34;;;;;;;4.60;4.20;;;;;;;;;;105580;1296;25286;-29
2022/08/05 14:23:59;;;;;;;2.60;2.40;;;;;;;;;;105381;1288;25522;-29
2022/08/05 14:26:25;;;;;;;2.20;1.50;;;;;;;;;;105591;1296;25225;-25